sensor_id;sensor_type;location;lat;lon;timestamp;temperature;humidity
1626;DHT22;806;48.770;9.156;2022-10-31T00:01:57;14.40;1.00
1626;DHT22;806;48.770;9.156;2022-10-31T00:04:24;14.40;4.70
1626;DHT22;806;48.770;9.156;2022-10-31T00:06:51;14.50;3.10
1626;DHT22;806;48.770;9.156;2022-10-31T00:09:18;14.50;1.00
1626;DHT22;806;48.770;9.156;2022-10-31T00:11:45;14.40;1.00
1626;DHT22;806;48.770;9.156;2022-10-31T00:14:12;14.40;1.00
1626;DHT22;806;48.770;9.156;2022-10-31T00:16:39;14.40;1.00
1626;DHT22;806;48.770;9.156;2022-10-31T00:19:08;14.40;1.00
1626;DHT22;806;48.770;9.156;2022-10-31T00:21:35;14.40;1.00
1626;DHT22;806;48.770;9.156;2022-10-31T00:24:03;14.40;1.10
1626;DHT22;806;48.770;9.156;2022-10-31T00:26:30;14.40;1.00
1626;DHT22;806;48.770;9.156;2022-10-31T00:28:58;14.40;1.00
1626;DHT22;806;48.770;9.156;2022-10-31T00:31:25;14.30;1.00
1626;DHT22;806;48.770;9.156;2022-10-31T00:33:52;14.10;3.60
1626;DHT22;806;48.770;9.156;2022-10-31T00:36:20;14.10;20.20
1626;DHT22;806;48.770;9.156;2022-10-31T00:38:47;14.10;22.70
1626;DHT22;806;48.770;9.156;2022-10-31T00:41:16;14.20;9.00
1626;DHT22;806;48.770;9.156;2022-10-31T00:43:44;14.20;1.00
1626;DHT22;806;48.770;9.156;2022-10-31T00:46:11;14.10;1.50
1626;DHT22;806;48.770;9.156;2022-10-31T00:48:38;14.10;1.00
1626;DHT22;806;48.770;9.156;2022-10-31T00:51:05;14.10;5.30
1626;DHT22;806;48.770;9.156;2022-10-31T00:53:34;14.20;21.50
1626;DHT22;806;48.770;9.156;2022-10-31T00:56:01;14.30;15.70
1626;DHT22;806;48.770;9.156;2022-10-31T00:58:28;14.30;1.00
1626;DHT22;806;48.770;9.156;2022-10-31T01:00:54;14.30;1.00
1626;DHT22;806;48.770;9.156;2022-10-31T01:03:22;14.30;1.00
1626;DHT22;806;48.770;9.156;2022-10-31T01:05:57;14.30;1.00
1626;DHT22;806;48.770;9.156;2022-10-31T01:08:25;14.30;1.00
1626;DHT22;806;48.770;9.156;2022-10-31T01:11:01;14.30;1.00
1626;DHT22;806;48.770;9.156;2022-10-31T01:13:28;14.30;1.10
1626;DHT22;806;48.770;9.156;2022-10-31T01:15:55;14.30;1.00
1626;DHT22;806;48.770;9.156;2022-10-31T01:18:22;14.40;1.00
1626;DHT22;806;48.770;9.156;2022-10-31T01:20:57;14.30;1.00
1626;DHT22;806;48.770;9.156;2022-10-31T01:23:24;14.20;1.00
1626;DHT22;806;48.770;9.156;2022-10-31T01:26:04;14.10;1.00
1626;DHT22;806;48.770;9.156;2022-10-31T01:28:32;14.10;1.00
1626;DHT22;806;48.770;9.156;2022-10-31T01:31:03;14.00;1.00
1626;DHT22;806;48.770;9.156;2022-10-31T01:33:30;14.00;8.70
1626;DHT22;806;48.770;9.156;2022-10-31T01:35:57;13.90;5.90
1626;DHT22;806;48.770;9.156;2022-10-31T01:38:24;14.00;12.80
1626;DHT22;806;48.770;9.156;2022-10-31T01:40:51;13.90;9.40
1626;DHT22;806;48.770;9.156;2022-10-31T01:43:20;14.00;23.90
1626;DHT22;806;48.770;9.156;2022-10-31T01:45:51;14.10;20.60
1626;DHT22;806;48.770;9.156;2022-10-31T01:48:24;14.10;1.80
1626;DHT22;806;48.770;9.156;2022-10-31T01:50:54;14.10;1.00
1626;DHT22;806;48.770;9.156;2022-10-31T01:53:22;14.20;1.00
1626;DHT22;806;48.770;9.156;2022-10-31T01:55:50;14.20;1.00
1626;DHT22;806;48.770;9.156;2022-10-31T01:58:24;14.20;1.00
1626;DHT22;806;48.770;9.156;2022-10-31T02:00:55;14.20;1.00
1626;DHT22;806;48.770;9.156;2022-10-31T02:03:23;14.20;1.00
1626;DHT22;806;48.770;9.156;2022-10-31T02:05:50;14.20;1.00
1626;DHT22;806;48.770;9.156;2022-10-31T02:08:23;14.10;1.00
1626;DHT22;806;48.770;9.156;2022-10-31T02:10:52;14.10;1.30
1626;DHT22;806;48.770;9.156;2022-10-31T02:13:20;14.10;2.70
1626;DHT22;806;48.770;9.156;2022-10-31T02:15:51;14.20;7.10
1626;DHT22;806;48.770;9.156;2022-10-31T02:18:18;14.30;1.00
1626;DHT22;806;48.770;9.156;2022-10-31T02:20:53;14.20;1.00
1626;DHT22;806;48.770;9.156;2022-10-31T02:32:20;14.00;5.40
1626;DHT22;806;48.770;9.156;2022-10-31T02:34:56;14.00;1.00
1626;DHT22;806;48.770;9.156;2022-10-31T02:37:31;14.00;5.20
1626;DHT22;806;48.770;9.156;2022-10-31T02:40:05;14.00;15.20
1626;DHT22;806;48.770;9.156;2022-10-31T02:42:43;14.00;9.00
1626;DHT22;806;48.770;9.156;2022-10-31T02:45:16;14.00;1.00
1626;DHT22;806;48.770;9.156;2022-10-31T02:47:49;14.00;1.00
1626;DHT22;806;48.770;9.156;2022-10-31T02:50:21;14.00;7.80
1626;DHT22;806;48.770;9.156;2022-10-31T02:52:51;14.00;1.00
1626;DHT22;806;48.770;9.156;2022-10-31T02:55:44;14.00;1.00
1626;DHT22;806;48.770;9.156;2022-10-31T02:58:15;14.00;1.00
1626;DHT22;806;48.770;9.156;2022-10-31T03:00:49;14.00;7.30
1626;DHT22;806;48.770;9.156;2022-10-31T03:03:25;13.90;10.80
1626;DHT22;806;48.770;9.156;2022-10-31T03:06:01;14.00;9.50
1626;DHT22;806;48.770;9.156;2022-10-31T03:08:33;14.00;1.00
1626;DHT22;806;48.770;9.156;2022-10-31T03:11:03;14.00;2.80
1626;DHT22;806;48.770;9.156;2022-10-31T03:13:38;14.00;5.20
1626;DHT22;806;48.770;9.156;2022-10-31T03:16:10;13.90;1.00
1626;DHT22;806;48.770;9.156;2022-10-31T03:18:45;13.90;1.00
1626;DHT22;806;48.770;9.156;2022-10-31T03:21:19;13.80;1.00
1626;DHT22;806;48.770;9.156;2022-10-31T03:23:50;13.80;1.00
1626;DHT22;806;48.770;9.156;2022-10-31T03:26:18;13.80;5.80
1626;DHT22;806;48.770;9.156;2022-10-31T03:28:49;13.90;19.20
1626;DHT22;806;48.770;9.156;2022-10-31T03:31:19;13.80;1.00
1626;DHT22;806;48.770;9.156;2022-10-31T03:33:52;13.80;1.00
1626;DHT22;806;48.770;9.156;2022-10-31T03:36:21;13.70;1.00
1626;DHT22;806;48.770;9.156;2022-10-31T03:38:49;13.70;5.60
1626;DHT22;806;48.770;9.156;2022-10-31T03:41:19;13.80;11.00
1626;DHT22;806;48.770;9.156;2022-10-31T03:43:52;13.70;1.00
1626;DHT22;806;48.770;9.156;2022-10-31T03:46:21;13.70;1.00
1626;DHT22;806;48.770;9.156;2022-10-31T03:48:48;13.70;1.00
1626;DHT22;806;48.770;9.156;2022-10-31T03:51:22;13.70;36.00
1626;DHT22;806;48.770;9.156;2022-10-31T03:53:54;13.70;28.70
1626;DHT22;806;48.770;9.156;2022-10-31T03:56:29;13.80;26.90
1626;DHT22;806;48.770;9.156;2022-10-31T03:59:01;13.90;1.00
1626;DHT22;806;48.770;9.156;2022-10-31T04:01:30;13.90;1.00
1626;DHT22;806;48.770;9.156;2022-10-31T04:03:59;13.90;1.00
1626;DHT22;806;48.770;9.156;2022-10-31T04:06:29;13.80;1.00
1626;DHT22;806;48.770;9.156;2022-10-31T04:08:59;13.80;1.00
1626;DHT22;806;48.770;9.156;2022-10-31T04:11:30;13.80;1.00
1626;DHT22;806;48.770;9.156;2022-10-31T04:13:58;13.80;1.00
1626;DHT22;806;48.770;9.156;2022-10-31T04:16:26;13.70;3.10
1626;DHT22;806;48.770;9.156;2022-10-31T04:18:54;13.70;1.00
1626;DHT22;806;48.770;9.156;2022-10-31T04:21:28;13.60;1.00
1626;DHT22;806;48.770;9.156;2022-10-31T04:23:56;13.50;14.70
1626;DHT22;806;48.770;9.156;2022-10-31T04:26:23;13.60;51.90
1626;DHT22;806;48.770;9.156;2022-10-31T04:28:50;13.60;38.10
1626;DHT22;806;48.770;9.156;2022-10-31T04:31:17;13.70;29.00
1626;DHT22;806;48.770;9.156;2022-10-31T04:33:44;13.70;10.10
1626;DHT22;806;48.770;9.156;2022-10-31T04:36:11;13.60;1.00
1626;DHT22;806;48.770;9.156;2022-10-31T04:38:39;13.60;1.00
1626;DHT22;806;48.770;9.156;2022-10-31T04:41:06;13.50;10.00
1626;DHT22;806;48.770;9.156;2022-10-31T04:43:33;13.50;1.00
1626;DHT22;806;48.770;9.156;2022-10-31T04:46:00;13.50;1.00
1626;DHT22;806;48.770;9.156;2022-10-31T04:48:27;13.30;12.40
1626;DHT22;806;48.770;9.156;2022-10-31T04:50:59;13.30;16.50
1626;DHT22;806;48.770;9.156;2022-10-31T04:53:26;13.20;23.30
1626;DHT22;806;48.770;9.156;2022-10-31T04:55:54;13.10;44.40
1626;DHT22;806;48.770;9.156;2022-10-31T04:58:21;13.00;50.80
1626;DHT22;806;48.770;9.156;2022-10-31T05:00:51;13.10;91.40
1626;DHT22;806;48.770;9.156;2022-10-31T05:03:18;13.10;89.60
1626;DHT22;806;48.770;9.156;2022-10-31T05:05:45;13.10;72.30
1626;DHT22;806;48.770;9.156;2022-10-31T05:08:12;13.10;56.60
1626;DHT22;806;48.770;9.156;2022-10-31T05:10:39;13.10;61.50
1626;DHT22;806;48.770;9.156;2022-10-31T05:13:08;13.20;50.60
1626;DHT22;806;48.770;9.156;2022-10-31T05:15:35;13.10;25.20
1626;DHT22;806;48.770;9.156;2022-10-31T05:18:02;13.10;7.10
1626;DHT22;806;48.770;9.156;2022-10-31T05:20:30;13.00;6.40
1626;DHT22;806;48.770;9.156;2022-10-31T05:22:58;12.90;8.60
1626;DHT22;806;48.770;9.156;2022-10-31T05:25:26;12.80;32.90
1626;DHT22;806;48.770;9.156;2022-10-31T05:27:55;12.80;39.50
1626;DHT22;806;48.770;9.156;2022-10-31T05:30:25;12.70;42.40
1626;DHT22;806;48.770;9.156;2022-10-31T05:32:52;12.70;48.20
1626;DHT22;806;48.770;9.156;2022-10-31T05:35:20;12.70;80.80
1626;DHT22;806;48.770;9.156;2022-10-31T05:37:47;12.70;77.30
1626;DHT22;806;48.770;9.156;2022-10-31T05:40:16;12.70;64.20
1626;DHT22;806;48.770;9.156;2022-10-31T05:42:43;12.70;69.40
1626;DHT22;806;48.770;9.156;2022-10-31T05:45:12;12.80;85.50
1626;DHT22;806;48.770;9.156;2022-10-31T05:47:41;12.90;60.50
1626;DHT22;806;48.770;9.156;2022-10-31T05:50:09;13.00;56.50
1626;DHT22;806;48.770;9.156;2022-10-31T05:52:36;12.90;25.00
1626;DHT22;806;48.770;9.156;2022-10-31T05:55:03;12.90;3.50
1626;DHT22;806;48.770;9.156;2022-10-31T05:57:32;12.80;1.00
1626;DHT22;806;48.770;9.156;2022-10-31T05:59:59;12.70;5.80
1626;DHT22;806;48.770;9.156;2022-10-31T06:02:26;12.70;15.40
1626;DHT22;806;48.770;9.156;2022-10-31T06:04:58;12.60;23.50
1626;DHT22;806;48.770;9.156;2022-10-31T06:07:25;12.60;46.90
1626;DHT22;806;48.770;9.156;2022-10-31T06:09:52;12.70;54.90
1626;DHT22;806;48.770;9.156;2022-10-31T06:12:19;12.70;51.80
1626;DHT22;806;48.770;9.156;2022-10-31T06:14:46;12.80;87.00
1626;DHT22;806;48.770;9.156;2022-10-31T06:17:13;12.90;94.40
1626;DHT22;806;48.770;9.156;2022-10-31T06:19:40;13.10;47.30
1626;DHT22;806;48.770;9.156;2022-10-31T06:22:08;13.20;9.60
1626;DHT22;806;48.770;9.156;2022-10-31T06:24:37;13.20;13.10
1626;DHT22;806;48.770;9.156;2022-10-31T06:27:04;13.30;1.00
1626;DHT22;806;48.770;9.156;2022-10-31T06:29:31;13.20;1.00
1626;DHT22;806;48.770;9.156;2022-10-31T06:31:58;13.10;1.00
1626;DHT22;806;48.770;9.156;2022-10-31T06:34:25;13.20;13.40
1626;DHT22;806;48.770;9.156;2022-10-31T06:36:52;13.20;18.40
1626;DHT22;806;48.770;9.156;2022-10-31T06:39:21;13.30;13.40
1626;DHT22;806;48.770;9.156;2022-10-31T06:41:48;13.30;17.60
1626;DHT22;806;48.770;9.156;2022-10-31T06:44:14;13.30;20.10
1626;DHT22;806;48.770;9.156;2022-10-31T06:46:41;13.30;12.50
1626;DHT22;806;48.770;9.156;2022-10-31T06:49:08;13.50;13.80
1626;DHT22;806;48.770;9.156;2022-10-31T06:51:35;13.50;1.00
1626;DHT22;806;48.770;9.156;2022-10-31T06:54:02;13.50;1.00
1626;DHT22;806;48.770;9.156;2022-10-31T06:56:31;13.40;1.00
1626;DHT22;806;48.770;9.156;2022-10-31T06:58:58;13.40;1.00
1626;DHT22;806;48.770;9.156;2022-10-31T07:01:24;13.40;1.00
1626;DHT22;806;48.770;9.156;2022-10-31T07:03:51;13.60;1.00
1626;DHT22;806;48.770;9.156;2022-10-31T07:06:18;13.60;1.00
1626;DHT22;806;48.770;9.156;2022-10-31T07:08:47;13.70;1.00
1626;DHT22;806;48.770;9.156;2022-10-31T07:11:14;13.70;1.00
1626;DHT22;806;48.770;9.156;2022-10-31T07:13:43;13.70;1.00
1626;DHT22;806;48.770;9.156;2022-10-31T07:16:10;13.60;1.00
1626;DHT22;806;48.770;9.156;2022-10-31T07:18:38;13.60;1.00
1626;DHT22;806;48.770;9.156;2022-10-31T07:21:05;13.60;1.00
1626;DHT22;806;48.770;9.156;2022-10-31T07:23:32;13.70;1.00
1626;DHT22;806;48.770;9.156;2022-10-31T07:25:59;13.70;1.00
1626;DHT22;806;48.770;9.156;2022-10-31T07:28:27;13.60;1.00
1626;DHT22;806;48.770;9.156;2022-10-31T07:30:56;13.60;1.00
1626;DHT22;806;48.770;9.156;2022-10-31T07:33:24;13.70;1.00
1626;DHT22;806;48.770;9.156;2022-10-31T07:35:52;13.70;1.00
1626;DHT22;806;48.770;9.156;2022-10-31T07:38:19;13.70;1.00
1626;DHT22;806;48.770;9.156;2022-10-31T07:40:50;13.80;1.00
1626;DHT22;806;48.770;9.156;2022-10-31T07:43:18;13.70;1.00
1626;DHT22;806;48.770;9.156;2022-10-31T07:45:49;13.90;1.00
1626;DHT22;806;48.770;9.156;2022-10-31T07:48:18;14.00;1.00
1626;DHT22;806;48.770;9.156;2022-10-31T07:50:45;14.10;1.00
1626;DHT22;806;48.770;9.156;2022-10-31T07:53:14;14.10;1.00
1626;DHT22;806;48.770;9.156;2022-10-31T07:55:42;14.10;1.00
1626;DHT22;806;48.770;9.156;2022-10-31T07:58:11;14.10;1.00
1626;DHT22;806;48.770;9.156;2022-10-31T08:00:42;14.10;1.00
1626;DHT22;806;48.770;9.156;2022-10-31T08:03:11;14.30;1.00
1626;DHT22;806;48.770;9.156;2022-10-31T08:05:39;14.40;1.00
1626;DHT22;806;48.770;9.156;2022-10-31T08:08:07;14.40;1.00
1626;DHT22;806;48.770;9.156;2022-10-31T08:10:35;14.40;1.00
1626;DHT22;806;48.770;9.156;2022-10-31T08:13:05;14.40;1.00
1626;DHT22;806;48.770;9.156;2022-10-31T08:15:33;14.40;1.00
1626;DHT22;806;48.770;9.156;2022-10-31T08:18:03;14.30;1.00
1626;DHT22;806;48.770;9.156;2022-10-31T08:20:30;14.20;1.00
1626;DHT22;806;48.770;9.156;2022-10-31T08:23:00;14.00;1.00
1626;DHT22;806;48.770;9.156;2022-10-31T08:25:28;13.80;1.00
1626;DHT22;806;48.770;9.156;2022-10-31T08:27:56;13.80;1.00
1626;DHT22;806;48.770;9.156;2022-10-31T08:30:29;13.90;1.00
1626;DHT22;806;48.770;9.156;2022-10-31T08:33:00;14.10;1.00
1626;DHT22;806;48.770;9.156;2022-10-31T08:35:29;14.10;1.00
1626;DHT22;806;48.770;9.156;2022-10-31T08:37:58;14.10;1.00
1626;DHT22;806;48.770;9.156;2022-10-31T08:40:27;14.10;1.00
1626;DHT22;806;48.770;9.156;2022-10-31T08:43:02;14.00;1.00
1626;DHT22;806;48.770;9.156;2022-10-31T08:45:33;14.00;1.00
1626;DHT22;806;48.770;9.156;2022-10-31T08:48:09;13.90;1.00
1626;DHT22;806;48.770;9.156;2022-10-31T08:50:46;13.80;1.00
1626;DHT22;806;48.770;9.156;2022-10-31T08:53:16;13.80;1.00
1626;DHT22;806;48.770;9.156;2022-10-31T08:55:47;13.90;1.00
1626;DHT22;806;48.770;9.156;2022-10-31T08:58:20;14.10;1.00
1626;DHT22;806;48.770;9.156;2022-10-31T09:00:53;14.20;1.00
1626;DHT22;806;48.770;9.156;2022-10-31T09:03:26;14.20;1.00
1626;DHT22;806;48.770;9.156;2022-10-31T09:06:05;14.30;1.00
1626;DHT22;806;48.770;9.156;2022-10-31T09:08:36;14.40;1.00
1626;DHT22;806;48.770;9.156;2022-10-31T09:11:04;14.40;1.00
1626;DHT22;806;48.770;9.156;2022-10-31T09:14:10;14.50;1.00
1626;DHT22;806;48.770;9.156;2022-10-31T09:16:40;14.80;1.00
1626;DHT22;806;48.770;9.156;2022-10-31T09:19:13;15.00;1.00
1626;DHT22;806;48.770;9.156;2022-10-31T09:21:54;15.20;1.00
1626;DHT22;806;48.770;9.156;2022-10-31T09:24:37;15.10;1.00
1626;DHT22;806;48.770;9.156;2022-10-31T09:27:13;15.10;1.00
1626;DHT22;806;48.770;9.156;2022-10-31T09:29:41;15.00;1.00
1626;DHT22;806;48.770;9.156;2022-10-31T09:32:11;15.20;1.00
1626;DHT22;806;48.770;9.156;2022-10-31T09:34:47;15.30;1.00
1626;DHT22;806;48.770;9.156;2022-10-31T09:37:16;15.50;1.00
1626;DHT22;806;48.770;9.156;2022-10-31T09:39:48;15.70;1.00
1626;DHT22;806;48.770;9.156;2022-10-31T09:42:54;15.90;99.90
1626;DHT22;806;48.770;9.156;2022-10-31T09:45:30;16.00;1.00
1626;DHT22;806;48.770;9.156;2022-10-31T09:48:11;16.00;1.00
1626;DHT22;806;48.770;9.156;2022-10-31T09:50:45;15.90;1.00
1626;DHT22;806;48.770;9.156;2022-10-31T09:53:23;15.80;6.50
1626;DHT22;806;48.770;9.156;2022-10-31T09:55:53;15.90;99.90
1626;DHT22;806;48.770;9.156;2022-10-31T09:58:25;16.00;99.90
1626;DHT22;806;48.770;9.156;2022-10-31T10:00:54;16.10;96.60
1626;DHT22;806;48.770;9.156;2022-10-31T10:03:30;16.20;1.00
1626;DHT22;806;48.770;9.156;2022-10-31T10:06:04;16.10;1.00
1626;DHT22;806;48.770;9.156;2022-10-31T10:08:35;16.10;1.00
1626;DHT22;806;48.770;9.156;2022-10-31T10:11:14;15.90;1.00
1626;DHT22;806;48.770;9.156;2022-10-31T10:14:03;15.90;99.90
1626;DHT22;806;48.770;9.156;2022-10-31T10:16:43;16.10;99.90
1626;DHT22;806;48.770;9.156;2022-10-31T10:19:34;16.30;1.00
1626;DHT22;806;48.770;9.156;2022-10-31T10:22:12;16.50;99.90
1626;DHT22;806;48.770;9.156;2022-10-31T10:24:54;16.60;99.90
1626;DHT22;806;48.770;9.156;2022-10-31T10:27:30;16.60;99.90
1626;DHT22;806;48.770;9.156;2022-10-31T10:30:03;16.60;99.90
1626;DHT22;806;48.770;9.156;2022-10-31T10:32:38;16.60;99.90
1626;DHT22;806;48.770;9.156;2022-10-31T10:35:24;16.50;99.90
1626;DHT22;806;48.770;9.156;2022-10-31T10:37:56;16.50;1.00
1626;DHT22;806;48.770;9.156;2022-10-31T10:40:27;16.70;1.00
1626;DHT22;806;48.770;9.156;2022-10-31T10:43:01;16.90;86.10
1626;DHT22;806;48.770;9.156;2022-10-31T10:45:59;16.80;99.90
1626;DHT22;806;48.770;9.156;2022-10-31T10:48:49;16.80;1.00
1626;DHT22;806;48.770;9.156;2022-10-31T10:51:23;16.60;99.90
1626;DHT22;806;48.770;9.156;2022-10-31T10:57:04;17.00;1.00
1626;DHT22;806;48.770;9.156;2022-10-31T10:59:36;17.00;1.00
1626;DHT22;806;48.770;9.156;2022-10-31T11:02:17;17.00;1.00
1626;DHT22;806;48.770;9.156;2022-10-31T11:04:45;17.10;1.00
1626;DHT22;806;48.770;9.156;2022-10-31T11:07:14;17.10;1.00
1626;DHT22;806;48.770;9.156;2022-10-31T11:09:41;17.20;99.90
1626;DHT22;806;48.770;9.156;2022-10-31T11:12:09;17.50;1.00
1626;DHT22;806;48.770;9.156;2022-10-31T11:14:45;17.70;99.90
1626;DHT22;806;48.770;9.156;2022-10-31T11:17:22;17.90;8.30
1626;DHT22;806;48.770;9.156;2022-10-31T11:20:00;17.90;99.90
1626;DHT22;806;48.770;9.156;2022-10-31T11:22:27;17.80;1.00
1626;DHT22;806;48.770;9.156;2022-10-31T11:24:54;17.60;1.00
1626;DHT22;806;48.770;9.156;2022-10-31T11:27:23;17.60;1.00
1626;DHT22;806;48.770;9.156;2022-10-31T11:29:51;17.70;1.00
1626;DHT22;806;48.770;9.156;2022-10-31T11:32:21;17.80;1.00
1626;DHT22;806;48.770;9.156;2022-10-31T11:34:51;18.00;1.00
1626;DHT22;806;48.770;9.156;2022-10-31T11:37:24;18.30;99.90
1626;DHT22;806;48.770;9.156;2022-10-31T11:39:53;18.30;99.90
1626;DHT22;806;48.770;9.156;2022-10-31T11:42:22;18.20;99.90
1626;DHT22;806;48.770;9.156;2022-10-31T11:44:53;18.30;99.90
1626;DHT22;806;48.770;9.156;2022-10-31T11:47:25;18.30;27.80
1626;DHT22;806;48.770;9.156;2022-10-31T11:49:53;18.20;99.90
1626;DHT22;806;48.770;9.156;2022-10-31T11:52:26;18.40;99.90
1626;DHT22;806;48.770;9.156;2022-10-31T11:54:59;18.60;97.30
1626;DHT22;806;48.770;9.156;2022-10-31T11:57:32;18.70;1.00
1626;DHT22;806;48.770;9.156;2022-10-31T12:00:04;18.70;1.00
1626;DHT22;806;48.770;9.156;2022-10-31T12:02:31;18.90;1.00
1626;DHT22;806;48.770;9.156;2022-10-31T12:05:04;19.00;1.00
1626;DHT22;806;48.770;9.156;2022-10-31T12:07:33;19.00;1.00
1626;DHT22;806;48.770;9.156;2022-10-31T12:10:01;18.90;1.00
1626;DHT22;806;48.770;9.156;2022-10-31T12:12:46;18.80;1.00
1626;DHT22;806;48.770;9.156;2022-10-31T12:15:31;18.90;1.00
1626;DHT22;806;48.770;9.156;2022-10-31T12:18:22;19.10;1.00
1626;DHT22;806;48.770;9.156;2022-10-31T12:21:01;19.30;1.00
1626;DHT22;806;48.770;9.156;2022-10-31T12:23:37;19.40;1.00
1626;DHT22;806;48.770;9.156;2022-10-31T12:26:16;19.50;1.00
1626;DHT22;806;48.770;9.156;2022-10-31T12:28:58;19.50;1.00
1626;DHT22;806;48.770;9.156;2022-10-31T12:31:44;19.50;1.00
1626;DHT22;806;48.770;9.156;2022-10-31T12:34:53;19.20;1.00
1626;DHT22;806;48.770;9.156;2022-10-31T12:37:40;19.10;1.00
1626;DHT22;806;48.770;9.156;2022-10-31T12:40:24;19.20;1.00
1626;DHT22;806;48.770;9.156;2022-10-31T12:43:03;19.20;1.00
1626;DHT22;806;48.770;9.156;2022-10-31T12:45:50;19.20;1.00
1626;DHT22;806;48.770;9.156;2022-10-31T12:48:37;19.10;1.00
1626;DHT22;806;48.770;9.156;2022-10-31T12:51:11;19.10;1.00
1626;DHT22;806;48.770;9.156;2022-10-31T12:53:55;19.00;1.00
1626;DHT22;806;48.770;9.156;2022-10-31T12:56:37;19.00;1.00
1626;DHT22;806;48.770;9.156;2022-10-31T12:59:11;18.80;99.90
1626;DHT22;806;48.770;9.156;2022-10-31T13:01:44;18.60;99.90
1626;DHT22;806;48.770;9.156;2022-10-31T13:04:17;18.50;1.00
1626;DHT22;806;48.770;9.156;2022-10-31T13:06:49;18.60;1.00
1626;DHT22;806;48.770;9.156;2022-10-31T13:09:20;18.60;1.00
1626;DHT22;806;48.770;9.156;2022-10-31T13:11:51;18.50;1.00
1626;DHT22;806;48.770;9.156;2022-10-31T13:14:24;18.60;1.00
1626;DHT22;806;48.770;9.156;2022-10-31T13:16:54;18.70;1.00
1626;DHT22;806;48.770;9.156;2022-10-31T13:19:27;18.70;1.00
1626;DHT22;806;48.770;9.156;2022-10-31T13:22:00;18.80;99.90
1626;DHT22;806;48.770;9.156;2022-10-31T13:24:34;18.70;99.90
1626;DHT22;806;48.770;9.156;2022-10-31T13:27:12;18.70;1.00
1626;DHT22;806;48.770;9.156;2022-10-31T13:29:46;18.70;1.00
1626;DHT22;806;48.770;9.156;2022-10-31T13:32:16;18.70;1.00
1626;DHT22;806;48.770;9.156;2022-10-31T13:34:49;18.60;1.00
1626;DHT22;806;48.770;9.156;2022-10-31T13:37:35;18.60;1.00
1626;DHT22;806;48.770;9.156;2022-10-31T13:40:14;18.70;1.00
1626;DHT22;806;48.770;9.156;2022-10-31T13:42:54;18.90;1.00
1626;DHT22;806;48.770;9.156;2022-10-31T13:45:25;19.20;99.90
1626;DHT22;806;48.770;9.156;2022-10-31T13:47:57;19.30;99.90
1626;DHT22;806;48.770;9.156;2022-10-31T13:50:27;19.20;99.90
1626;DHT22;806;48.770;9.156;2022-10-31T13:53:10;19.30;99.90
1626;DHT22;806;48.770;9.156;2022-10-31T13:55:40;19.30;99.90
1626;DHT22;806;48.770;9.156;2022-10-31T13:58:21;19.10;99.90
1626;DHT22;806;48.770;9.156;2022-10-31T14:00:59;18.90;99.90
1626;DHT22;806;48.770;9.156;2022-10-31T14:03:28;18.80;99.90
1626;DHT22;806;48.770;9.156;2022-10-31T14:05:57;18.70;1.00
1626;DHT22;806;48.770;9.156;2022-10-31T14:08:25;18.70;1.00
1626;DHT22;806;48.770;9.156;2022-10-31T14:10:54;18.60;1.00
1626;DHT22;806;48.770;9.156;2022-10-31T14:13:26;18.60;1.00
1626;DHT22;806;48.770;9.156;2022-10-31T14:15:56;18.50;28.70
1626;DHT22;806;48.770;9.156;2022-10-31T14:18:28;18.50;18.60
1626;DHT22;806;48.770;9.156;2022-10-31T14:20:58;18.60;1.00
1626;DHT22;806;48.770;9.156;2022-10-31T14:23:40;18.60;44.10
1626;DHT22;806;48.770;9.156;2022-10-31T14:26:32;18.60;1.00
1626;DHT22;806;48.770;9.156;2022-10-31T14:29:00;18.50;1.00
1626;DHT22;806;48.770;9.156;2022-10-31T14:31:34;18.40;80.20
1626;DHT22;806;48.770;9.156;2022-10-31T14:34:17;18.40;99.90
1626;DHT22;806;48.770;9.156;2022-10-31T14:36:55;18.50;99.90
1626;DHT22;806;48.770;9.156;2022-10-31T14:39:29;18.50;99.90
1626;DHT22;806;48.770;9.156;2022-10-31T14:42:14;18.40;99.90
1626;DHT22;806;48.770;9.156;2022-10-31T14:45:08;18.40;99.90
1626;DHT22;806;48.770;9.156;2022-10-31T14:47:45;18.40;99.90
1626;DHT22;806;48.770;9.156;2022-10-31T14:50:23;18.40;99.90
1626;DHT22;806;48.770;9.156;2022-10-31T14:52:56;18.40;99.90
1626;DHT22;806;48.770;9.156;2022-10-31T14:55:24;18.30;1.00
1626;DHT22;806;48.770;9.156;2022-10-31T14:57:54;18.30;1.00
1626;DHT22;806;48.770;9.156;2022-10-31T15:00:23;18.30;99.90
1626;DHT22;806;48.770;9.156;2022-10-31T15:03:05;18.20;1.00
1626;DHT22;806;48.770;9.156;2022-10-31T15:05:35;18.20;1.00
1626;DHT22;806;48.770;9.156;2022-10-31T15:08:25;18.20;1.00
1626;DHT22;806;48.770;9.156;2022-10-31T15:10:53;18.30;67.20
1626;DHT22;806;48.770;9.156;2022-10-31T15:13:22;18.30;99.90
1626;DHT22;806;48.770;9.156;2022-10-31T15:15:51;18.30;99.90
1626;DHT22;806;48.770;9.156;2022-10-31T15:18:24;18.30;99.90
1626;DHT22;806;48.770;9.156;2022-10-31T15:20:53;18.30;1.00
1626;DHT22;806;48.770;9.156;2022-10-31T15:23:24;18.20;99.90
1626;DHT22;806;48.770;9.156;2022-10-31T15:25:58;18.20;99.90
1626;DHT22;806;48.770;9.156;2022-10-31T15:28:26;18.10;1.00
1626;DHT22;806;48.770;9.156;2022-10-31T15:30:54;18.00;1.00
1626;DHT22;806;48.770;9.156;2022-10-31T15:33:23;18.00;1.00
1626;DHT22;806;48.770;9.156;2022-10-31T15:35:58;17.90;1.00
1626;DHT22;806;48.770;9.156;2022-10-31T15:38:28;17.90;1.00
1626;DHT22;806;48.770;9.156;2022-10-31T15:40:59;17.80;89.90
1626;DHT22;806;48.770;9.156;2022-10-31T15:43:29;17.80;99.90
1626;DHT22;806;48.770;9.156;2022-10-31T15:45:58;17.70;99.90
1626;DHT22;806;48.770;9.156;2022-10-31T15:48:26;17.60;99.90
1626;DHT22;806;48.770;9.156;2022-10-31T15:50:54;17.60;99.90
1626;DHT22;806;48.770;9.156;2022-10-31T15:53:24;17.50;99.90
1626;DHT22;806;48.770;9.156;2022-10-31T15:55:55;17.40;1.00
1626;DHT22;806;48.770;9.156;2022-10-31T15:58:23;17.40;1.00
1626;DHT22;806;48.770;9.156;2022-10-31T16:00:58;17.30;1.00
1626;DHT22;806;48.770;9.156;2022-10-31T16:03:27;17.30;1.00
1626;DHT22;806;48.770;9.156;2022-10-31T16:05:56;17.30;1.00
1626;DHT22;806;48.770;9.156;2022-10-31T16:08:33;17.20;1.00
1626;DHT22;806;48.770;9.156;2022-10-31T16:11:16;17.20;1.00
1626;DHT22;806;48.770;9.156;2022-10-31T16:13:53;17.10;1.00
1626;DHT22;806;48.770;9.156;2022-10-31T16:16:20;17.10;1.00
1626;DHT22;806;48.770;9.156;2022-10-31T16:18:49;17.10;1.00
1626;DHT22;806;48.770;9.156;2022-10-31T16:21:24;17.10;1.00
1626;DHT22;806;48.770;9.156;2022-10-31T16:23:55;17.10;1.00
1626;DHT22;806;48.770;9.156;2022-10-31T16:26:25;17.00;1.00
1626;DHT22;806;48.770;9.156;2022-10-31T16:28:53;16.90;1.00
1626;DHT22;806;48.770;9.156;2022-10-31T16:31:27;16.90;1.00
1626;DHT22;806;48.770;9.156;2022-10-31T16:34:03;16.90;1.00
1626;DHT22;806;48.770;9.156;2022-10-31T16:36:32;16.90;1.00
1626;DHT22;806;48.770;9.156;2022-10-31T16:39:01;16.80;1.00
1626;DHT22;806;48.770;9.156;2022-10-31T16:41:37;16.70;1.00
1626;DHT22;806;48.770;9.156;2022-10-31T16:44:06;16.50;1.00
1626;DHT22;806;48.770;9.156;2022-10-31T16:46:38;16.40;1.00
1626;DHT22;806;48.770;9.156;2022-10-31T16:49:07;16.50;1.00
1626;DHT22;806;48.770;9.156;2022-10-31T16:51:35;16.40;1.00
1626;DHT22;806;48.770;9.156;2022-10-31T16:54:02;16.40;1.00
1626;DHT22;806;48.770;9.156;2022-10-31T16:56:30;16.40;1.00
1626;DHT22;806;48.770;9.156;2022-10-31T16:59:01;16.40;1.00
1626;DHT22;806;48.770;9.156;2022-10-31T17:01:29;16.40;1.00
1626;DHT22;806;48.770;9.156;2022-10-31T17:03:57;16.30;1.00
1626;DHT22;806;48.770;9.156;2022-10-31T17:06:24;16.30;1.00
1626;DHT22;806;48.770;9.156;2022-10-31T17:08:53;16.30;1.00
1626;DHT22;806;48.770;9.156;2022-10-31T17:11:22;16.20;1.00